sensor_id;sensor_type;location;lat;lon;timestamp;P1;durP1;ratioP1;P2;durP2;ratioP2
7051;SDS011;3567;52.444;13.556;2023-02-19T00:01:28;1.50;;;1.40;;
7051;SDS011;3567;52.444;13.556;2023-02-19T00:04:18;2.42;;;1.88;;
7051;SDS011;3567;52.444;13.556;2023-02-19T00:06:44;2.38;;;1.85;;
7051;SDS011;3567;52.444;13.556;2023-02-19T00:09:11;3.20;;;2.15;;
7051;SDS011;3567;52.444;13.556;2023-02-19T00:11:37;3.35;;;2.25;;
7051;SDS011;3567;52.444;13.556;2023-02-19T00:14:04;1.83;;;1.65;;
7051;SDS011;3567;52.444;13.556;2023-02-19T00:16:37;2.17;;;2.08;;
7051;SDS011;3567;52.444;13.556;2023-02-19T00:19:04;2.25;;;2.00;;
7051;SDS011;3567;52.444;13.556;2023-02-19T00:21:32;3.33;;;2.22;;
7051;SDS011;3567;52.444;13.556;2023-02-19T00:23:59;2.63;;;2.42;;
7051;SDS011;3567;52.444;13.556;2023-02-19T00:26:27;2.83;;;2.17;;
7051;SDS011;3567;52.444;13.556;2023-02-19T00:28:53;3.17;;;2.88;;
7051;SDS011;3567;52.444;13.556;2023-02-19T00:31:21;2.60;;;2.40;;
7051;SDS011;3567;52.444;13.556;2023-02-19T00:33:55;4.72;;;3.25;;
7051;SDS011;3567;52.444;13.556;2023-02-19T00:36:22;3.08;;;2.88;;
7051;SDS011;3567;52.444;13.556;2023-02-19T00:38:49;7.78;;;4.20;;
7051;SDS011;3567;52.444;13.556;2023-02-19T00:41:16;5.95;;;3.65;;
7051;SDS011;3567;52.444;13.556;2023-02-19T00:46:10;4.65;;;3.42;;
7051;SDS011;3567;52.444;13.556;2023-02-19T00:48:35;4.40;;;3.53;;
7051;SDS011;3567;52.444;13.556;2023-02-19T00:51:01;4.88;;;3.92;;
7051;SDS011;3567;52.444;13.556;2023-02-19T00:53:26;6.03;;;3.50;;
7051;SDS011;3567;52.444;13.556;2023-02-19T00:55:52;5.10;;;4.32;;
7051;SDS011;3567;52.444;13.556;2023-02-19T00:58:17;5.82;;;4.28;;
7051;SDS011;3567;52.444;13.556;2023-02-19T01:00:42;4.90;;;4.13;;
7051;SDS011;3567;52.444;13.556;2023-02-19T01:03:08;5.57;;;4.15;;
7051;SDS011;3567;52.444;13.556;2023-02-19T01:05:33;6.53;;;4.88;;
7051;SDS011;3567;52.444;13.556;2023-02-19T01:07:58;5.05;;;4.53;;
7051;SDS011;3567;52.444;13.556;2023-02-19T01:10:24;6.43;;;4.60;;
7051;SDS011;3567;52.444;13.556;2023-02-19T01:12:49;5.28;;;4.25;;
7051;SDS011;3567;52.444;13.556;2023-02-19T01:15:14;5.28;;;4.20;;
7051;SDS011;3567;52.444;13.556;2023-02-19T01:17:40;7.63;;;4.72;;
7051;SDS011;3567;52.444;13.556;2023-02-19T01:20:05;7.18;;;4.18;;
7051;SDS011;3567;52.444;13.556;2023-02-19T01:22:30;8.70;;;6.13;;
7051;SDS011;3567;52.444;13.556;2023-02-19T01:24:56;8.23;;;5.07;;
7051;SDS011;3567;52.444;13.556;2023-02-19T01:27:21;8.65;;;5.93;;
7051;SDS011;3567;52.444;13.556;2023-02-19T01:29:46;6.55;;;5.03;;
7051;SDS011;3567;52.444;13.556;2023-02-19T01:32:12;8.77;;;6.13;;
7051;SDS011;3567;52.444;13.556;2023-02-19T01:34:37;11.75;;;7.65;;
7051;SDS011;3567;52.444;13.556;2023-02-19T01:37:02;13.02;;;8.93;;
7051;SDS011;3567;52.444;13.556;2023-02-19T01:39:28;11.88;;;7.20;;
7051;SDS011;3567;52.444;13.556;2023-02-19T01:41:53;10.32;;;7.78;;
7051;SDS011;3567;52.444;13.556;2023-02-19T01:46:44;10.88;;;7.05;;
7051;SDS011;3567;52.444;13.556;2023-02-19T01:49:22;11.57;;;6.88;;
7051;SDS011;3567;52.444;13.556;2023-02-19T01:54:23;10.00;;;6.70;;
7051;SDS011;3567;52.444;13.556;2023-02-19T01:56:50;13.50;;;7.28;;
7051;SDS011;3567;52.444;13.556;2023-02-19T01:59:17;10.13;;;7.43;;
7051;SDS011;3567;52.444;13.556;2023-02-19T02:01:43;12.55;;;8.25;;
7051;SDS011;3567;52.444;13.556;2023-02-19T02:04:09;13.38;;;8.00;;
7051;SDS011;3567;52.444;13.556;2023-02-19T02:06:54;11.15;;;7.85;;
7051;SDS011;3567;52.444;13.556;2023-02-19T02:09:22;12.13;;;7.97;;
7051;SDS011;3567;52.444;13.556;2023-02-19T02:12:10;20.65;;;10.90;;
7051;SDS011;3567;52.444;13.556;2023-02-19T02:14:37;17.08;;;10.13;;
7051;SDS011;3567;52.444;13.556;2023-02-19T02:19:54;11.52;;;8.27;;
7051;SDS011;3567;52.444;13.556;2023-02-19T02:22:58;10.88;;;7.70;;
7051;SDS011;3567;52.444;13.556;2023-02-19T02:25:42;10.13;;;7.30;;
7051;SDS011;3567;52.444;13.556;2023-02-19T02:30:58;13.60;;;6.88;;
7051;SDS011;3567;52.444;13.556;2023-02-19T02:33:40;9.23;;;6.85;;
7051;SDS011;3567;52.444;13.556;2023-02-19T02:36:32;8.98;;;6.75;;
7051;SDS011;3567;52.444;13.556;2023-02-19T02:39:02;10.77;;;6.20;;
7051;SDS011;3567;52.444;13.556;2023-02-19T02:41:31;8.35;;;6.40;;
7051;SDS011;3567;52.444;13.556;2023-02-19T02:43:57;9.10;;;5.72;;
7051;SDS011;3567;52.444;13.556;2023-02-19T02:46:24;9.23;;;6.80;;
7051;SDS011;3567;52.444;13.556;2023-02-19T02:48:57;11.02;;;6.25;;
7051;SDS011;3567;52.444;13.556;2023-02-19T02:51:35;8.23;;;6.35;;
7051;SDS011;3567;52.444;13.556;2023-02-19T02:54:09;13.10;;;6.40;;
7051;SDS011;3567;52.444;13.556;2023-02-19T02:56:58;9.70;;;6.00;;
7051;SDS011;3567;52.444;13.556;2023-02-19T02:59:25;7.70;;;6.13;;
7051;SDS011;3567;52.444;13.556;2023-02-19T03:02:13;13.82;;;6.22;;
7051;SDS011;3567;52.444;13.556;2023-02-19T03:08:04;12.88;;;6.38;;
7051;SDS011;3567;52.444;13.556;2023-02-19T03:10:40;15.80;;;7.65;;
7051;SDS011;3567;52.444;13.556;2023-02-19T03:13:18;14.98;;;7.55;;
7051;SDS011;3567;52.444;13.556;2023-02-19T03:16:11;16.38;;;7.80;;
7051;SDS011;3567;52.444;13.556;2023-02-19T03:19:02;13.25;;;7.70;;
7051;SDS011;3567;52.444;13.556;2023-02-19T03:21:46;9.80;;;6.53;;
7051;SDS011;3567;52.444;13.556;2023-02-19T03:24:14;10.55;;;6.68;;
7051;SDS011;3567;52.444;13.556;2023-02-19T03:27:01;13.88;;;5.80;;
7051;SDS011;3567;52.444;13.556;2023-02-19T03:29:29;14.80;;;5.13;;
7051;SDS011;3567;52.444;13.556;2023-02-19T03:32:00;17.02;;;6.35;;
7051;SDS011;3567;52.444;13.556;2023-02-19T03:34:33;9.73;;;4.78;;
7051;SDS011;3567;52.444;13.556;2023-02-19T03:37:07;10.27;;;5.13;;
7051;SDS011;3567;52.444;13.556;2023-02-19T03:39:37;6.45;;;4.68;;
7051;SDS011;3567;52.444;13.556;2023-02-19T03:47:51;11.20;;;5.25;;
7051;SDS011;3567;52.444;13.556;2023-02-19T03:50:28;13.50;;;5.85;;
7051;SDS011;3567;52.444;13.556;2023-02-19T03:53:11;7.35;;;5.15;;
7051;SDS011;3567;52.444;13.556;2023-02-19T03:55:51;16.60;;;5.38;;
7051;SDS011;3567;52.444;13.556;2023-02-19T03:58:28;11.43;;;4.93;;
7051;SDS011;3567;52.444;13.556;2023-02-19T04:01:18;14.23;;;5.35;;
7051;SDS011;3567;52.444;13.556;2023-02-19T04:04:02;9.02;;;4.45;;
7051;SDS011;3567;52.444;13.556;2023-02-19T04:06:33;13.70;;;4.45;;
7051;SDS011;3567;52.444;13.556;2023-02-19T04:09:02;8.50;;;3.28;;
7051;SDS011;3567;52.444;13.556;2023-02-19T04:11:30;7.07;;;3.53;;
7051;SDS011;3567;52.444;13.556;2023-02-19T04:16:35;6.10;;;3.67;;
7051;SDS011;3567;52.444;13.556;2023-02-19T04:19:06;9.40;;;3.88;;
7051;SDS011;3567;52.444;13.556;2023-02-19T04:21:37;7.07;;;2.67;;
7051;SDS011;3567;52.444;13.556;2023-02-19T04:24:05;8.00;;;2.13;;
7051;SDS011;3567;52.444;13.556;2023-02-19T04:26:38;4.07;;;2.28;;
7051;SDS011;3567;52.444;13.556;2023-02-19T04:29:05;7.25;;;2.90;;
7051;SDS011;3567;52.444;13.556;2023-02-19T04:31:30;10.07;;;3.63;;
7051;SDS011;3567;52.444;13.556;2023-02-19T04:33:59;8.13;;;2.80;;
7051;SDS011;3567;52.444;13.556;2023-02-19T04:36:25;6.85;;;2.97;;
7051;SDS011;3567;52.444;13.556;2023-02-19T04:38:50;13.35;;;3.85;;
7051;SDS011;3567;52.444;13.556;2023-02-19T04:41:15;9.13;;;3.33;;
7051;SDS011;3567;52.444;13.556;2023-02-19T04:43:41;6.25;;;3.20;;
7051;SDS011;3567;52.444;13.556;2023-02-19T04:46:06;5.35;;;3.08;;
7051;SDS011;3567;52.444;13.556;2023-02-19T04:48:31;5.97;;;2.97;;
7051;SDS011;3567;52.444;13.556;2023-02-19T04:50:57;8.45;;;4.00;;
7051;SDS011;3567;52.444;13.556;2023-02-19T04:53:22;8.52;;;3.75;;
7051;SDS011;3567;52.444;13.556;2023-02-19T04:55:48;9.02;;;3.97;;
7051;SDS011;3567;52.444;13.556;2023-02-19T04:58:17;8.18;;;3.38;;
7051;SDS011;3567;52.444;13.556;2023-02-19T05:00:42;8.35;;;3.22;;
7051;SDS011;3567;52.444;13.556;2023-02-19T05:03:08;10.23;;;3.78;;
7051;SDS011;3567;52.444;13.556;2023-02-19T05:05:34;6.60;;;3.42;;
7051;SDS011;3567;52.444;13.556;2023-02-19T05:07:59;9.50;;;3.88;;
7051;SDS011;3567;52.444;13.556;2023-02-19T05:10:25;7.60;;;3.65;;
7051;SDS011;3567;52.444;13.556;2023-02-19T05:12:50;5.72;;;3.60;;
7051;SDS011;3567;52.444;13.556;2023-02-19T05:15:16;6.85;;;3.25;;
7051;SDS011;3567;52.444;13.556;2023-02-19T05:17:41;10.15;;;3.22;;
7051;SDS011;3567;52.444;13.556;2023-02-19T05:20:07;10.35;;;3.20;;
7051;SDS011;3567;52.444;13.556;2023-02-19T05:22:33;8.05;;;3.15;;
7051;SDS011;3567;52.444;13.556;2023-02-19T05:24:58;10.57;;;3.00;;
7051;SDS011;3567;52.444;13.556;2023-02-19T05:27:23;6.25;;;3.17;;
7051;SDS011;3567;52.444;13.556;2023-02-19T05:29:49;5.68;;;2.55;;
7051;SDS011;3567;52.444;13.556;2023-02-19T05:32:14;6.35;;;3.17;;
7051;SDS011;3567;52.444;13.556;2023-02-19T05:34:39;3.55;;;2.50;;
7051;SDS011;3567;52.444;13.556;2023-02-19T05:37:05;7.55;;;3.42;;
7051;SDS011;3567;52.444;13.556;2023-02-19T05:39:30;3.85;;;2.55;;
7051;SDS011;3567;52.444;13.556;2023-02-19T05:41:55;4.85;;;2.75;;
7051;SDS011;3567;52.444;13.556;2023-02-19T05:44:21;4.15;;;2.80;;
7051;SDS011;3567;52.444;13.556;2023-02-19T05:46:46;5.80;;;2.30;;
7051;SDS011;3567;52.444;13.556;2023-02-19T05:49:11;3.90;;;2.53;;
7051;SDS011;3567;52.444;13.556;2023-02-19T05:51:37;8.07;;;3.25;;
7051;SDS011;3567;52.444;13.556;2023-02-19T05:54:02;6.90;;;3.00;;
7051;SDS011;3567;52.444;13.556;2023-02-19T05:56:37;8.90;;;2.83;;
7051;SDS011;3567;52.444;13.556;2023-02-19T05:59:20;4.57;;;2.58;;
7051;SDS011;3567;52.444;13.556;2023-02-19T06:01:48;9.10;;;2.58;;
7051;SDS011;3567;52.444;13.556;2023-02-19T06:04:14;4.65;;;2.80;;
7051;SDS011;3567;52.444;13.556;2023-02-19T06:06:43;9.18;;;3.30;;
7051;SDS011;3567;52.444;13.556;2023-02-19T06:09:08;7.75;;;2.90;;
7051;SDS011;3567;52.444;13.556;2023-02-19T06:11:34;7.78;;;2.90;;
7051;SDS011;3567;52.444;13.556;2023-02-19T06:14:00;4.30;;;3.05;;
7051;SDS011;3567;52.444;13.556;2023-02-19T06:16:26;6.68;;;2.95;;
7051;SDS011;3567;52.444;13.556;2023-02-19T06:18:51;5.72;;;2.85;;
7051;SDS011;3567;52.444;13.556;2023-02-19T06:21:17;4.50;;;2.53;;
7051;SDS011;3567;52.444;13.556;2023-02-19T06:23:43;5.72;;;2.85;;
7051;SDS011;3567;52.444;13.556;2023-02-19T06:28:48;5.50;;;2.45;;
7051;SDS011;3567;52.444;13.556;2023-02-19T06:31:15;5.53;;;2.78;;
7051;SDS011;3567;52.444;13.556;2023-02-19T06:33:42;10.20;;;3.00;;
7051;SDS011;3567;52.444;13.556;2023-02-19T06:36:17;7.10;;;2.70;;
7051;SDS011;3567;52.444;13.556;2023-02-19T06:38:44;5.25;;;2.45;;
7051;SDS011;3567;52.444;13.556;2023-02-19T06:41:09;5.72;;;2.92;;
7051;SDS011;3567;52.444;13.556;2023-02-19T06:43:36;3.95;;;3.03;;
7051;SDS011;3567;52.444;13.556;2023-02-19T06:46:01;5.88;;;2.85;;
7051;SDS011;3567;52.444;13.556;2023-02-19T06:48:29;8.35;;;3.10;;
7051;SDS011;3567;52.444;13.556;2023-02-19T06:50:56;7.32;;;3.15;;
7051;SDS011;3567;52.444;13.556;2023-02-19T06:53:22;8.55;;;3.00;;
7051;SDS011;3567;52.444;13.556;2023-02-19T06:55:54;44.58;;;22.65;;
7051;SDS011;3567;52.444;13.556;2023-02-19T06:58:23;7.80;;;4.43;;
7051;SDS011;3567;52.444;13.556;2023-02-19T07:00:49;8.15;;;4.07;;
7051;SDS011;3567;52.444;13.556;2023-02-19T07:03:15;9.63;;;3.45;;
7051;SDS011;3567;52.444;13.556;2023-02-19T07:05:41;9.57;;;3.70;;
7051;SDS011;3567;52.444;13.556;2023-02-19T07:08:07;6.38;;;2.78;;
7051;SDS011;3567;52.444;13.556;2023-02-19T07:10:33;8.35;;;3.67;;
7051;SDS011;3567;52.444;13.556;2023-02-19T07:12:58;8.13;;;2.55;;
7051;SDS011;3567;52.444;13.556;2023-02-19T07:15:24;5.00;;;2.15;;
7051;SDS011;3567;52.444;13.556;2023-02-19T07:17:49;10.75;;;3.50;;
7051;SDS011;3567;52.444;13.556;2023-02-19T07:20:14;4.78;;;2.70;;
7051;SDS011;3567;52.444;13.556;2023-02-19T07:22:40;5.47;;;2.72;;
7051;SDS011;3567;52.444;13.556;2023-02-19T07:25:05;8.77;;;2.83;;
7051;SDS011;3567;52.444;13.556;2023-02-19T07:27:30;9.90;;;2.92;;
7051;SDS011;3567;52.444;13.556;2023-02-19T07:29:56;2.83;;;1.70;;
7051;SDS011;3567;52.444;13.556;2023-02-19T07:32:21;9.55;;;2.05;;
7051;SDS011;3567;52.444;13.556;2023-02-19T07:34:46;8.68;;;1.85;;
7051;SDS011;3567;52.444;13.556;2023-02-19T07:37:12;9.63;;;3.38;;
7051;SDS011;3567;52.444;13.556;2023-02-19T07:39:37;7.20;;;2.08;;
7051;SDS011;3567;52.444;13.556;2023-02-19T07:42:02;4.40;;;1.70;;
7051;SDS011;3567;52.444;13.556;2023-02-19T07:44:28;6.82;;;2.30;;
7051;SDS011;3567;52.444;13.556;2023-02-19T07:46:53;6.93;;;2.08;;
7051;SDS011;3567;52.444;13.556;2023-02-19T07:49:19;2.42;;;1.48;;
7051;SDS011;3567;52.444;13.556;2023-02-19T07:51:44;8.80;;;2.15;;
7051;SDS011;3567;52.444;13.556;2023-02-19T07:54:09;8.57;;;2.20;;
7051;SDS011;3567;52.444;13.556;2023-02-19T07:56:35;8.07;;;2.10;;
7051;SDS011;3567;52.444;13.556;2023-02-19T07:59:00;5.53;;;1.98;;
7051;SDS011;3567;52.444;13.556;2023-02-19T08:01:26;8.63;;;2.15;;
7051;SDS011;3567;52.444;13.556;2023-02-19T08:04:10;6.32;;;2.05;;
7051;SDS011;3567;52.444;13.556;2023-02-19T08:06:37;9.25;;;2.38;;
7051;SDS011;3567;52.444;13.556;2023-02-19T08:09:03;4.63;;;2.13;;
7051;SDS011;3567;52.444;13.556;2023-02-19T08:11:29;3.35;;;1.90;;
7051;SDS011;3567;52.444;13.556;2023-02-19T08:14:13;11.27;;;2.45;;
7051;SDS011;3567;52.444;13.556;2023-02-19T08:16:38;5.80;;;1.83;;
7051;SDS011;3567;52.444;13.556;2023-02-19T08:19:04;3.55;;;1.90;;
7051;SDS011;3567;52.444;13.556;2023-02-19T08:21:29;4.47;;;1.60;;
7051;SDS011;3567;52.444;13.556;2023-02-19T08:23:55;4.57;;;2.20;;
7051;SDS011;3567;52.444;13.556;2023-02-19T08:26:20;5.45;;;1.92;;
7051;SDS011;3567;52.444;13.556;2023-02-19T08:28:46;9.98;;;2.15;;
7051;SDS011;3567;52.444;13.556;2023-02-19T08:31:12;9.52;;;2.05;;
7051;SDS011;3567;52.444;13.556;2023-02-19T08:33:38;6.35;;;1.55;;
7051;SDS011;3567;52.444;13.556;2023-02-19T08:36:04;4.75;;;1.40;;
7051;SDS011;3567;52.444;13.556;2023-02-19T08:38:32;4.50;;;1.50;;
7051;SDS011;3567;52.444;13.556;2023-02-19T08:41:02;5.03;;;1.50;;
7051;SDS011;3567;52.444;13.556;2023-02-19T08:43:32;5.60;;;0.95;;
7051;SDS011;3567;52.444;13.556;2023-02-19T08:45:57;8.93;;;1.90;;
7051;SDS011;3567;52.444;13.556;2023-02-19T08:48:23;3.22;;;1.17;;
7051;SDS011;3567;52.444;13.556;2023-02-19T08:50:52;10.05;;;1.73;;
7051;SDS011;3567;52.444;13.556;2023-02-19T08:53:18;5.97;;;1.40;;
7051;SDS011;3567;52.444;13.556;2023-02-19T08:55:44;8.77;;;1.42;;
7051;SDS011;3567;52.444;13.556;2023-02-19T08:58:09;6.40;;;1.30;;
7051;SDS011;3567;52.444;13.556;2023-02-19T09:00:34;6.20;;;1.95;;
7051;SDS011;3567;52.444;13.556;2023-02-19T09:03:00;5.32;;;2.00;;
7051;SDS011;3567;52.444;13.556;2023-02-19T09:05:25;7.93;;;1.90;;
7051;SDS011;3567;52.444;13.556;2023-02-19T09:07:51;7.88;;;1.77;;
7051;SDS011;3567;52.444;13.556;2023-02-19T09:10:16;5.05;;;1.30;;
7051;SDS011;3567;52.444;13.556;2023-02-19T09:12:42;6.25;;;1.42;;
7051;SDS011;3567;52.444;13.556;2023-02-19T09:15:07;7.47;;;1.95;;
7051;SDS011;3567;52.444;13.556;2023-02-19T09:17:33;7.63;;;2.00;;
7051;SDS011;3567;52.444;13.556;2023-02-19T09:19:58;7.40;;;1.85;;
7051;SDS011;3567;52.444;13.556;2023-02-19T09:22:24;8.32;;;1.75;;
7051;SDS011;3567;52.444;13.556;2023-02-19T09:24:49;3.72;;;1.40;;
7051;SDS011;3567;52.444;13.556;2023-02-19T09:27:15;8.00;;;1.63;;
7051;SDS011;3567;52.444;13.556;2023-02-19T09:29:42;4.45;;;1.15;;
7051;SDS011;3567;52.444;13.556;2023-02-19T09:32:07;4.28;;;1.30;;
7051;SDS011;3567;52.444;13.556;2023-02-19T09:34:33;6.15;;;1.05;;
7051;SDS011;3567;52.444;13.556;2023-02-19T09:36:58;6.13;;;1.10;;
7051;SDS011;3567;52.444;13.556;2023-02-19T09:39:24;8.73;;;2.20;;
7051;SDS011;3567;52.444;13.556;2023-02-19T09:44:22;6.70;;;1.65;;
7051;SDS011;3567;52.444;13.556;2023-02-19T09:46:51;8.70;;;1.10;;
7051;SDS011;3567;52.444;13.556;2023-02-19T09:49:23;12.15;;;1.73;;
7051;SDS011;3567;52.444;13.556;2023-02-19T09:51:55;10.18;;;1.80;;
7051;SDS011;3567;52.444;13.556;2023-02-19T09:54:23;4.13;;;1.02;;
7051;SDS011;3567;52.444;13.556;2023-02-19T09:56:50;7.57;;;1.17;;
7051;SDS011;3567;52.444;13.556;2023-02-19T09:59:20;4.38;;;0.90;;
7051;SDS011;3567;52.444;13.556;2023-02-19T10:01:50;4.60;;;1.67;;
7051;SDS011;3567;52.444;13.556;2023-02-19T10:04:22;8.40;;;1.77;;
7051;SDS011;3567;52.444;13.556;2023-02-19T10:06:47;5.22;;;1.35;;
7051;SDS011;3567;52.444;13.556;2023-02-19T10:09:17;7.18;;;1.02;;
7051;SDS011;3567;52.444;13.556;2023-02-19T10:11:46;5.22;;;1.13;;
7051;SDS011;3567;52.444;13.556;2023-02-19T10:14:17;7.60;;;1.23;;
7051;SDS011;3567;52.444;13.556;2023-02-19T10:16:51;4.88;;;1.15;;
7051;SDS011;3567;52.444;13.556;2023-02-19T10:19:17;7.13;;;1.27;;
7051;SDS011;3567;52.444;13.556;2023-02-19T10:21:43;5.95;;;1.13;;
7051;SDS011;3567;52.444;13.556;2023-02-19T10:24:12;4.25;;;0.77;;
7051;SDS011;3567;52.444;13.556;2023-02-19T10:26:43;5.85;;;1.23;;
7051;SDS011;3567;52.444;13.556;2023-02-19T10:29:09;3.47;;;0.68;;
7051;SDS011;3567;52.444;13.556;2023-02-19T10:31:35;6.63;;;0.95;;
7051;SDS011;3567;52.444;13.556;2023-02-19T10:34:00;5.18;;;1.52;;
7051;SDS011;3567;52.444;13.556;2023-02-19T10:36:37;6.60;;;0.70;;
7051;SDS011;3567;52.444;13.556;2023-02-19T10:41:45;5.38;;;1.10;;
7051;SDS011;3567;52.444;13.556;2023-02-19T10:46:41;5.38;;;0.77;;
7051;SDS011;3567;52.444;13.556;2023-02-19T10:49:22;2.97;;;0.55;;
7051;SDS011;3567;52.444;13.556;2023-02-19T10:51:54;3.90;;;0.93;;
7051;SDS011;3567;52.444;13.556;2023-02-19T10:54:25;6.40;;;0.95;;
7051;SDS011;3567;52.444;13.556;2023-02-19T10:56:55;4.50;;;1.00;;
7051;SDS011;3567;52.444;13.556;2023-02-19T10:59:43;4.55;;;0.80;;
7051;SDS011;3567;52.444;13.556;2023-02-19T11:02:17;4.60;;;0.88;;
7051;SDS011;3567;52.444;13.556;2023-02-19T11:07:49;5.32;;;0.55;;
7051;SDS011;3567;52.444;13.556;2023-02-19T11:10:19;3.15;;;0.70;;
7051;SDS011;3567;52.444;13.556;2023-02-19T11:13:22;2.58;;;0.57;;
7051;SDS011;3567;52.444;13.556;2023-02-19T11:15:52;4.97;;;0.82;;
7051;SDS011;3567;52.444;13.556;2023-02-19T11:20:56;6.50;;;1.42;;
7051;SDS011;3567;52.444;13.556;2023-02-19T11:23:25;5.40;;;0.88;;
7051;SDS011;3567;52.444;13.556;2023-02-19T11:25:54;3.75;;;0.80;;
7051;SDS011;3567;52.444;13.556;2023-02-19T11:28:34;4.63;;;0.70;;
7051;SDS011;3567;52.444;13.556;2023-02-19T11:36:32;4.00;;;0.75;;
7051;SDS011;3567;52.444;13.556;2023-02-19T11:39:20;4.80;;;0.75;;
7051;SDS011;3567;52.444;13.556;2023-02-19T11:42:13;3.78;;;0.73;;
7051;SDS011;3567;52.444;13.556;2023-02-19T11:45:15;4.20;;;0.68;;
7051;SDS011;3567;52.444;13.556;2023-02-19T11:53:27;3.90;;;0.90;;
7051;SDS011;3567;52.444;13.556;2023-02-19T12:08:28;2.00;;;0.50;;
7051;SDS011;3567;52.444;13.556;2023-02-19T12:10:47;5.75;;;0.70;;
7051;SDS011;3567;52.444;13.556;2023-02-19T12:13:26;3.72;;;0.50;;
7051;SDS011;3567;52.444;13.556;2023-02-19T12:16:05;3.13;;;0.55;;
7051;SDS011;3567;52.444;13.556;2023-02-19T12:24:21;1.67;;;0.70;;
7051;SDS011;3567;52.444;13.556;2023-02-19T12:30:02;1.67;;;0.80;;
7051;SDS011;3567;52.444;13.556;2023-02-19T12:32:48;2.67;;;0.40;;
7051;SDS011;3567;52.444;13.556;2023-02-19T12:35:36;3.85;;;0.60;;
7051;SDS011;3567;52.444;13.556;2023-02-19T12:40:59;3.05;;;0.55;;
7051;SDS011;3567;52.444;13.556;2023-02-19T12:43:50;2.45;;;0.52;;
7051;SDS011;3567;52.444;13.556;2023-02-19T12:46:27;4.40;;;0.73;;
7051;SDS011;3567;52.444;13.556;2023-02-19T12:49:18;4.57;;;0.57;;
7051;SDS011;3567;52.444;13.556;2023-02-19T12:52:10;3.13;;;0.82;;
7051;SDS011;3567;52.444;13.556;2023-02-19T12:54:45;5.80;;;0.82;;
7051;SDS011;3567;52.444;13.556;2023-02-19T12:57:18;4.63;;;0.85;;
7051;SDS011;3567;52.444;13.556;2023-02-19T12:59:47;4.63;;;1.02;;
7051;SDS011;3567;52.444;13.556;2023-02-19T13:07:58;2.78;;;0.70;;
7051;SDS011;3567;52.444;13.556;2023-02-19T13:13:14;2.05;;;0.50;;
7051;SDS011;3567;52.444;13.556;2023-02-19T13:15:49;6.10;;;1.00;;
7051;SDS011;3567;52.444;13.556;2023-02-19T13:18:20;4.03;;;1.05;;
7051;SDS011;3567;52.444;13.556;2023-02-19T13:20:50;3.38;;;0.50;;
7051;SDS011;3567;52.444;13.556;2023-02-19T13:29:08;1.95;;;0.52;;
7051;SDS011;3567;52.444;13.556;2023-02-19T13:37:12;2.58;;;0.80;;
7051;SDS011;3567;52.444;13.556;2023-02-19T13:39:48;5.05;;;0.65;;
7051;SDS011;3567;52.444;13.556;2023-02-19T13:42:25;6.97;;;0.88;;
7051;SDS011;3567;52.444;13.556;2023-02-19T13:44:55;4.05;;;0.47;;
7051;SDS011;3567;52.444;13.556;2023-02-19T13:52:54;2.67;;;0.60;;
7051;SDS011;3567;52.444;13.556;2023-02-19T14:01:04;6.53;;;0.88;;
7051;SDS011;3567;52.444;13.556;2023-02-19T14:06:06;4.22;;;0.73;;
7051;SDS011;3567;52.444;13.556;2023-02-19T14:17:02;3.38;;;0.60;;
7051;SDS011;3567;52.444;13.556;2023-02-19T14:27:44;0.88;;;0.38;;
7051;SDS011;3567;52.444;13.556;2023-02-19T14:30:10;3.13;;;0.60;;
7051;SDS011;3567;52.444;13.556;2023-02-19T14:32:38;1.35;;;0.30;;
7051;SDS011;3567;52.444;13.556;2023-02-19T14:35:05;8.80;;;1.05;;
7051;SDS011;3567;52.444;13.556;2023-02-19T14:37:30;1.75;;;0.50;;
7051;SDS011;3567;52.444;13.556;2023-02-19T14:39:56;2.50;;;0.50;;
7051;SDS011;3567;52.444;13.556;2023-02-19T14:42:23;1.83;;;0.85;;
7051;SDS011;3567;52.444;13.556;2023-02-19T14:44:56;5.47;;;1.00;;
7051;SDS011;3567;52.444;13.556;2023-02-19T14:47:26;2.78;;;0.50;;
7051;SDS011;3567;52.444;13.556;2023-02-19T14:52:29;9.10;;;1.13;;
7051;SDS011;3567;52.444;13.556;2023-02-19T14:55:23;5.55;;;0.68;;
7051;SDS011;3567;52.444;13.556;2023-02-19T14:57:49;4.28;;;0.50;;
7051;SDS011;3567;52.444;13.556;2023-02-19T15:00:34;2.70;;;0.52;;
7051;SDS011;3567;52.444;13.556;2023-02-19T15:06:25;4.03;;;0.65;;
7051;SDS011;3567;52.444;13.556;2023-02-19T15:08:45;3.75;;;0.43;;
7051;SDS011;3567;52.444;13.556;2023-02-19T15:11:16;3.63;;;0.82;;
7051;SDS011;3567;52.444;13.556;2023-02-19T15:13:49;3.13;;;0.50;;
7051;SDS011;3567;52.444;13.556;2023-02-19T15:16:17;2.00;;;0.50;;
7051;SDS011;3567;52.444;13.556;2023-02-19T15:18:45;1.48;;;0.47;;
7051;SDS011;3567;52.444;13.556;2023-02-19T15:21:19;3.80;;;0.40;;
7051;SDS011;3567;52.444;13.556;2023-02-19T15:23:48;2.80;;;0.60;;
7051;SDS011;3567;52.444;13.556;2023-02-19T15:26:48;2.35;;;0.50;;
7051;SDS011;3567;52.444;13.556;2023-02-19T15:29:11;4.18;;;0.65;;
7051;SDS011;3567;52.444;13.556;2023-02-19T15:31:45;5.85;;;0.90;;
7051;SDS011;3567;52.444;13.556;2023-02-19T15:34:22;1.75;;;0.40;;
7051;SDS011;3567;52.444;13.556;2023-02-19T15:37:02;3.08;;;0.65;;
7051;SDS011;3567;52.444;13.556;2023-02-19T15:41:59;2.85;;;0.60;;
7051;SDS011;3567;52.444;13.556;2023-02-19T15:44:39;2.10;;;0.43;;
7051;SDS011;3567;52.444;13.556;2023-02-19T15:55:35;3.70;;;0.50;;
7051;SDS011;3567;52.444;13.556;2023-02-19T15:58:21;2.80;;;0.52;;
7051;SDS011;3567;52.444;13.556;2023-02-19T16:00:49;4.13;;;0.55;;
7051;SDS011;3567;52.444;13.556;2023-02-19T16:03:26;2.03;;;0.45;;
7051;SDS011;3567;52.444;13.556;2023-02-19T16:06:03;2.42;;;0.57;;
7051;SDS011;3567;52.444;13.556;2023-02-19T16:08:35;3.70;;;0.47;;
7051;SDS011;3567;52.444;13.556;2023-02-19T16:11:04;3.95;;;0.70;;
7051;SDS011;3567;52.444;13.556;2023-02-19T16:13:33;3.13;;;0.50;;
7051;SDS011;3567;52.444;13.556;2023-02-19T16:18:37;3.60;;;0.80;;
7051;SDS011;3567;52.444;13.556;2023-02-19T16:21:09;1.42;;;0.43;;
7051;SDS011;3567;52.444;13.556;2023-02-19T16:23:34;1.85;;;0.93;;
7051;SDS011;3567;52.444;13.556;2023-02-19T16:26:06;3.15;;;0.80;;
7051;SDS011;3567;52.444;13.556;2023-02-19T16:28:36;1.67;;;0.82;;
7051;SDS011;3567;52.444;13.556;2023-02-19T16:36:15;9.60;;;2.50;;
7051;SDS011;3567;52.444;13.556;2023-02-19T16:46:52;3.10;;;1.05;;
7051;SDS011;3567;52.444;13.556;2023-02-19T16:49:21;6.05;;;1.08;;
7051;SDS011;3567;52.444;13.556;2023-02-19T16:51:47;6.20;;;2.40;;
7051;SDS011;3567;52.444;13.556;2023-02-19T16:54:13;3.83;;;1.17;;
7051;SDS011;3567;52.444;13.556;2023-02-19T16:56:39;5.13;;;1.08;;
7051;SDS011;3567;52.444;13.556;2023-02-19T16:59:04;5.57;;;1.13;;
7051;SDS011;3567;52.444;13.556;2023-02-19T17:01:31;2.15;;;0.82;;
7051;SDS011;3567;52.444;13.556;2023-02-19T17:03:58;1.55;;;1.00;;
7051;SDS011;3567;52.444;13.556;2023-02-19T17:06:27;5.18;;;1.50;;
7051;SDS011;3567;52.444;13.556;2023-02-19T17:08:52;2.97;;;1.10;;
7051;SDS011;3567;52.444;13.556;2023-02-19T17:11:18;4.47;;;1.17;;
7051;SDS011;3567;52.444;13.556;2023-02-19T17:13:44;2.33;;;1.13;;
7051;SDS011;3567;52.444;13.556;2023-02-19T17:16:14;4.80;;;1.20;;
7051;SDS011;3567;52.444;13.556;2023-02-19T17:18:42;3.80;;;1.40;;
7051;SDS011;3567;52.444;13.556;2023-02-19T17:21:11;3.50;;;0.93;;
7051;SDS011;3567;52.444;13.556;2023-02-19T17:23:39;3.85;;;1.30;;
7051;SDS011;3567;52.444;13.556;2023-02-19T17:26:04;7.38;;;0.85;;
7051;SDS011;3567;52.444;13.556;2023-02-19T17:28:30;0.75;;;0.70;;
7051;SDS011;3567;52.444;13.556;2023-02-19T17:30:55;11.80;;;5.20;;
7051;SDS011;3567;52.444;13.556;2023-02-19T17:33:20;2.08;;;1.20;;
7051;SDS011;3567;52.444;13.556;2023-02-19T17:35:46;1.92;;;1.25;;
7051;SDS011;3567;52.444;13.556;2023-02-19T17:38:11;4.47;;;1.00;;
7051;SDS011;3567;52.444;13.556;2023-02-19T17:40:37;4.70;;;1.00;;
7051;SDS011;3567;52.444;13.556;2023-02-19T17:43:03;1.95;;;1.02;;
7051;SDS011;3567;52.444;13.556;2023-02-19T17:45:29;4.25;;;1.00;;
7051;SDS011;3567;52.444;13.556;2023-02-19T17:47:55;1.73;;;0.70;;
7051;SDS011;3567;52.444;13.556;2023-02-19T17:50:21;9.55;;;1.90;;
7051;SDS011;3567;52.444;13.556;2023-02-19T17:52:49;4.72;;;0.90;;
7051;SDS011;3567;52.444;13.556;2023-02-19T17:55:15;1.75;;;0.85;;